createdAt,value
2018-11-28T00:00:28.971Z,0
2018-11-28T00:01:39.086Z,0
2018-11-28T00:02:48.944Z,0
2018-11-28T00:03:58.799Z,0
2018-11-28T00:05:08.947Z,0
2018-11-28T00:06:18.797Z,0
2018-11-28T00:07:28.916Z,0
2018-11-28T00:08:39.029Z,0
2018-11-28T00:09:49.143Z,0
2018-11-28T00:10:59.011Z,0
2018-11-28T00:12:09.206Z,0
2018-11-28T00:13:19.328Z,0
2018-11-28T00:14:29.195Z,0
2018-11-28T00:15:39.294Z,0
2018-11-28T00:16:49.462Z,0
2018-11-28T00:17:59.589Z,0
2018-11-28T00:19:09.691Z,0
2018-11-28T00:20:19.838Z,0
2018-11-28T00:21:29.968Z,0
2018-11-28T00:22:40.092Z,0
2018-11-28T00:23:50.213Z,0
2018-11-28T00:25:00.328Z,0
2018-11-28T00:26:10.436Z,0
2018-11-28T00:27:20.547Z,0
2018-11-28T00:28:30.654Z,0
2018-11-28T00:29:40.777Z,0
2018-11-28T00:30:50.896Z,0
2018-11-28T00:32:00.993Z,0
2018-11-28T00:33:11.097Z,0
2018-11-28T00:34:21.247Z,0
2018-11-28T00:35:31.358Z,0
2018-11-28T00:36:41.465Z,0
2018-11-28T00:37:51.689Z,0
2018-11-28T00:39:01.538Z,0
2018-11-28T00:40:11.651Z,0
2018-11-28T00:41:21.764Z,0
2018-11-28T00:42:31.870Z,0
2018-11-28T00:43:41.741Z,0
2018-11-28T00:44:51.846Z,0
2018-11-28T00:46:01.955Z,0
2018-11-28T00:47:12.050Z,0
2018-11-28T00:48:22.167Z,0
2018-11-28T00:49:32.003Z,0
2018-11-28T00:50:42.114Z,0
2018-11-28T00:51:52.224Z,0
2018-11-28T00:53:02.334Z,0
2018-11-28T00:54:12.451Z,0
2018-11-28T00:55:22.556Z,0
2018-11-28T00:56:32.675Z,0
2018-11-28T00:57:42.767Z,0
2018-11-28T00:58:52.868Z,0
2018-11-28T01:00:03.006Z,0
2018-11-28T01:01:13.109Z,0
2018-11-28T01:02:23.218Z,0
2018-11-28T01:03:33.379Z,0
2018-11-28T01:04:43.480Z,0
2018-11-28T01:05:53.593Z,0
2018-11-28T01:07:03.722Z,0
2018-11-28T01:08:13.842Z,0
2018-11-28T01:09:23.703Z,0
2018-11-28T01:10:34.085Z,0
2018-11-28T01:11:44.196Z,0
2018-11-28T01:12:54.332Z,0
2018-11-28T01:14:04.439Z,0
2018-11-28T01:15:14.554Z,0
2018-11-28T01:16:24.674Z,0
2018-11-28T01:17:34.835Z,0
2018-11-28T01:18:44.609Z,0
2018-11-28T01:19:54.507Z,0
2018-11-28T01:21:04.607Z,0
2018-11-28T01:22:14.709Z,0
2018-11-28T01:23:24.824Z,0
2018-11-28T01:24:35.168Z,0
2018-11-28T01:25:45.272Z,0
2018-11-28T01:26:55.117Z,0
2018-11-28T01:28:05.217Z,0
2018-11-28T01:29:15.313Z,0
2018-11-28T01:30:25.430Z,0
2018-11-28T01:31:35.551Z,0
2018-11-28T01:32:45.672Z,0
2018-11-28T01:33:55.825Z,0
2018-11-28T01:35:05.926Z,0
2018-11-28T01:36:16.056Z,0
2018-11-28T01:37:26.161Z,0
2018-11-28T01:38:36.293Z,0
2018-11-28T01:39:46.397Z,0
2018-11-28T01:40:56.488Z,0
2018-11-28T01:42:06.589Z,0
2018-11-28T01:43:17.034Z,0
2018-11-28T01:44:26.881Z,0
2018-11-28T01:45:36.727Z,0
2018-11-28T01:46:46.844Z,0
2018-11-28T01:47:56.951Z,0
2018-11-28T01:49:07.038Z,0
2018-11-28T01:50:17.170Z,0
2018-11-28T01:51:27.265Z,0
2018-11-28T01:52:37.375Z,0
2018-11-28T01:53:47.463Z,0
2018-11-28T01:54:57.582Z,0
2018-11-28T01:56:07.691Z,0
2018-11-28T01:57:17.819Z,0
2018-11-28T01:58:27.924Z,0
2018-11-28T01:59:38.018Z,0
2018-11-28T02:00:48.304Z,0
2018-11-28T02:01:58.415Z,0
2018-11-28T02:03:08.508Z,0
2018-11-28T02:04:18.387Z,0
2018-11-28T02:05:28.478Z,0
2018-11-28T02:06:38.618Z,0
2018-11-28T02:07:48.704Z,0
2018-11-28T02:08:58.811Z,0
2018-11-28T02:10:08.683Z,0
2018-11-28T02:11:18.767Z,0
2018-11-28T02:12:28.869Z,0
2018-11-28T02:13:38.960Z,0
2018-11-28T02:14:48.832Z,0
2018-11-28T02:15:58.925Z,0
2018-11-28T02:17:09.263Z,0
2018-11-28T02:18:19.358Z,0
2018-11-28T02:19:29.462Z,0
2018-11-28T02:20:39.809Z,0
2018-11-28T02:21:49.902Z,0
2018-11-28T02:22:59.994Z,0
2018-11-28T02:24:10.100Z,0
2018-11-28T02:25:20.197Z,0
2018-11-28T02:26:30.075Z,0
2018-11-28T02:27:40.170Z,0
2018-11-28T02:28:50.272Z,0
2018-11-28T02:30:00.439Z,0
2018-11-28T02:31:10.536Z,0
2018-11-28T02:32:20.660Z,0
2018-11-28T02:33:30.764Z,0
2018-11-28T02:34:40.873Z,0
2018-11-28T02:35:51.220Z,0
2018-11-28T02:37:01.324Z,0
2018-11-28T02:38:11.425Z,0
2018-11-28T02:39:21.535Z,0
2018-11-28T02:40:31.646Z,0
2018-11-28T02:41:41.740Z,0
2018-11-28T02:42:51.871Z,0
2018-11-28T02:44:02.001Z,0
2018-11-28T02:45:12.094Z,0
2018-11-28T02:46:21.833Z,0
2018-11-28T02:47:31.724Z,0
2018-11-28T02:48:41.869Z,0
2018-11-28T02:49:51.971Z,0
2018-11-28T02:51:02.059Z,0
2018-11-28T02:52:12.167Z,0
2018-11-28T02:53:22.019Z,0
2018-11-28T02:54:32.128Z,0
2018-11-28T02:55:42.232Z,0
2018-11-28T02:56:52.082Z,0
2018-11-28T02:58:01.926Z,0
2018-11-28T02:59:12.039Z,0
2018-11-28T03:00:22.187Z,0
2018-11-28T03:01:32.285Z,0
2018-11-28T03:02:42.381Z,0
2018-11-28T03:03:52.488Z,0
2018-11-28T03:05:02.618Z,0
2018-11-28T03:06:12.743Z,0
2018-11-28T03:07:22.846Z,0
2018-11-28T03:08:32.999Z,0
2018-11-28T03:09:43.089Z,0
2018-11-28T03:10:53.210Z,0
2018-11-28T03:12:03.306Z,0
2018-11-28T03:13:13.426Z,0
2018-11-28T03:14:23.517Z,0
2018-11-28T03:15:33.618Z,0
2018-11-28T03:16:43.496Z,0
2018-11-28T03:17:53.599Z,0
2018-11-28T03:19:03.459Z,0
2018-11-28T03:20:13.587Z,0
2018-11-28T03:21:23.702Z,0
2018-11-28T03:22:33.844Z,0
2018-11-28T03:23:43.947Z,0
2018-11-28T03:24:54.054Z,0
2018-11-28T03:26:04.163Z,0
2018-11-28T03:27:14.276Z,0
2018-11-28T03:28:24.384Z,0
2018-11-28T03:29:34.503Z,0
2018-11-28T03:30:44.619Z,0
2018-11-28T03:31:54.742Z,0
2018-11-28T03:33:05.088Z,0
2018-11-28T03:34:15.185Z,0
2018-11-28T03:35:26.748Z,0
2018-11-28T03:36:36.870Z,0
2018-11-28T03:37:46.974Z,0
2018-11-28T03:38:57.096Z,0
2018-11-28T03:40:07.202Z,0
2018-11-28T03:41:17.307Z,0
2018-11-28T03:42:27.406Z,0
2018-11-28T03:43:37.703Z,0
2018-11-28T03:44:47.792Z,0
2018-11-28T03:45:57.892Z,0
2018-11-28T03:47:08.004Z,0
2018-11-28T03:48:18.100Z,0
2018-11-28T03:49:28.222Z,0
2018-11-28T03:50:38.336Z,0
2018-11-28T03:51:48.445Z,0
2018-11-28T03:52:58.563Z,0
2018-11-28T03:54:08.702Z,0
2018-11-28T03:55:18.821Z,0
2018-11-28T03:56:28.676Z,0
2018-11-28T03:57:38.797Z,0
2018-11-28T03:58:48.894Z,0
2018-11-28T03:59:59.009Z,0
2018-11-28T04:01:09.161Z,0
2018-11-28T04:02:18.901Z,0
2018-11-28T04:03:29.006Z,0
2018-11-28T04:04:39.602Z,0
2018-11-28T04:05:49.723Z,0
2018-11-28T04:06:59.849Z,0
2018-11-28T04:08:09.957Z,0
2018-11-28T04:09:20.074Z,0
2018-11-28T04:10:30.181Z,0
2018-11-28T04:11:40.052Z,0
2018-11-28T04:12:50.179Z,0
2018-11-28T04:14:00.288Z,0
2018-11-28T04:15:10.394Z,0
2018-11-28T04:16:20.493Z,0
2018-11-28T04:17:30.601Z,0
2018-11-28T04:18:40.710Z,0
2018-11-28T04:19:50.568Z,0
2018-11-28T04:21:00.678Z,0
2018-11-28T04:22:10.863Z,0
2018-11-28T04:23:20.965Z,0
2018-11-28T04:24:31.060Z,0
2018-11-28T04:25:41.151Z,0
2018-11-28T04:26:51.265Z,0
2018-11-28T04:28:01.389Z,0
2018-11-28T04:29:11.490Z,0
2018-11-28T04:30:21.586Z,0
2018-11-28T04:31:31.895Z,0
2018-11-28T04:32:42.012Z,0
2018-11-28T04:33:52.142Z,0
2018-11-28T04:35:02.258Z,0
2018-11-28T04:36:12.421Z,0
2018-11-28T04:37:22.521Z,0
2018-11-28T04:38:32.639Z,0
2018-11-28T04:39:42.759Z,0
2018-11-28T04:40:52.870Z,0
2018-11-28T04:42:02.989Z,0
2018-11-28T04:43:13.109Z,0
2018-11-28T04:44:23.235Z,0
2018-11-28T04:45:33.336Z,0
2018-11-28T04:46:43.455Z,0
2018-11-28T04:47:53.578Z,0
2018-11-28T04:49:03.670Z,0
2018-11-28T04:50:13.767Z,0
2018-11-28T04:51:23.892Z,0
2018-11-28T04:52:33.988Z,0
2018-11-28T04:53:44.104Z,0
2018-11-28T04:54:53.950Z,0
2018-11-28T04:56:03.688Z,0
2018-11-28T04:57:13.770Z,0
2018-11-28T04:58:23.887Z,0
2018-11-28T04:59:33.981Z,0
2018-11-28T05:00:44.083Z,0
2018-11-28T05:01:53.847Z,0
2018-11-28T05:03:03.945Z,0
2018-11-28T05:04:14.063Z,0
2018-11-28T05:05:24.152Z,0
2018-11-28T05:06:34.295Z,0
2018-11-28T05:07:44.420Z,0
2018-11-28T05:08:54.523Z,0
2018-11-28T05:10:04.626Z,0
2018-11-28T05:11:14.728Z,0
2018-11-28T05:12:24.571Z,0
2018-11-28T05:13:34.690Z,0
2018-11-28T05:14:44.827Z,0
2018-11-28T05:15:54.951Z,0
2018-11-28T05:17:05.050Z,0
2018-11-28T05:18:15.145Z,0
2018-11-28T05:19:25.275Z,0
2018-11-28T05:20:35.395Z,0
2018-11-28T05:21:45.486Z,0
2018-11-28T05:22:55.577Z,0
2018-11-28T05:24:05.682Z,0
2018-11-28T05:25:15.801Z,0
2018-11-28T05:26:26.132Z,0
2018-11-28T05:27:36.284Z,0
2018-11-28T05:28:46.383Z,0
2018-11-28T05:29:56.488Z,0
2018-11-28T05:31:06.615Z,0
2018-11-28T05:32:16.936Z,0
2018-11-28T05:33:27.029Z,0
2018-11-28T05:34:37.379Z,0
2018-11-28T05:35:47.484Z,0
2018-11-28T05:36:57.317Z,0
2018-11-28T05:38:07.074Z,0
2018-11-28T05:39:17.177Z,0
2018-11-28T05:40:27.298Z,0
2018-11-28T05:41:37.405Z,0
2018-11-28T05:42:47.495Z,0
2018-11-28T05:43:57.592Z,0
2018-11-28T05:45:07.456Z,0
2018-11-28T05:46:17.547Z,0
2018-11-28T05:47:27.888Z,0
2018-11-28T05:48:37.989Z,0
2018-11-28T05:49:47.868Z,0
2018-11-28T05:50:57.964Z,0
2018-11-28T05:52:08.068Z,0
2018-11-28T05:53:18.157Z,0
2018-11-28T05:54:28.266Z,0
2018-11-28T05:55:38.427Z,0
2018-11-28T05:56:48.591Z,0
2018-11-28T05:57:58.713Z,0
2018-11-28T05:59:08.828Z,0
2018-11-28T06:00:18.944Z,0
2018-11-28T06:01:28.807Z,0
2018-11-28T06:02:38.649Z,0
2018-11-28T06:03:48.742Z,0
2018-11-28T06:04:58.850Z,0
2018-11-28T06:06:08.978Z,0
2018-11-28T06:07:19.110Z,0
2018-11-28T06:08:29.242Z,0
2018-11-28T06:09:39.335Z,0
2018-11-28T06:10:49.462Z,0
2018-11-28T06:11:59.567Z,0
2018-11-28T06:13:09.704Z,0
2018-11-28T06:14:19.814Z,0
2018-11-28T06:15:29.924Z,0
2018-11-28T06:16:40.043Z,0
2018-11-28T06:17:50.143Z,0
2018-11-28T06:19:00.254Z,0
2018-11-28T06:20:10.419Z,0
2018-11-28T06:21:20.545Z,0
2018-11-28T06:22:30.649Z,0
2018-11-28T06:23:40.516Z,0
2018-11-28T06:24:50.640Z,0
2018-11-28T06:26:00.754Z,0
2018-11-28T06:27:10.851Z,0
2018-11-28T06:28:20.996Z,0
2018-11-28T06:29:31.101Z,0
2018-11-28T06:30:41.222Z,0
2018-11-28T06:31:51.322Z,0
2018-11-28T06:33:01.443Z,0
2018-11-28T06:34:11.544Z,0
2018-11-28T06:35:21.382Z,0
2018-11-28T06:36:31.479Z,0
2018-11-28T06:37:41.214Z,0
2018-11-28T06:38:51.319Z,0
2018-11-28T06:40:01.062Z,0
2018-11-28T06:41:10.921Z,0
2018-11-28T06:42:21.022Z,0
2018-11-28T06:43:31.131Z,0
2018-11-28T06:44:41.242Z,0
2018-11-28T06:45:51.337Z,0
2018-11-28T06:47:01.459Z,0
2018-11-28T06:48:11.654Z,0
2018-11-28T06:49:21.784Z,0
2018-11-28T06:50:31.966Z,0
2018-11-28T06:51:41.812Z,0
2018-11-28T06:52:51.935Z,0
2018-11-28T06:54:02.079Z,0
2018-11-28T06:55:12.191Z,0
2018-11-28T06:56:22.277Z,0
2018-11-28T06:57:32.398Z,0
2018-11-28T06:58:42.509Z,5
2018-11-28T06:59:52.620Z,5
2018-11-28T07:01:02.738Z,5
2018-11-28T07:02:12.856Z,5
2018-11-28T07:03:22.960Z,5
2018-11-28T07:04:33.092Z,5
2018-11-28T07:05:43.196Z,5
2018-11-28T07:06:53.301Z,5
2018-11-28T07:08:03.405Z,5
2018-11-28T07:09:13.516Z,5
2018-11-28T07:10:23.372Z,5
2018-11-28T07:11:33.475Z,5
2018-11-28T07:12:43.599Z,5
2018-11-28T07:13:53.707Z,10
2018-11-28T07:15:03.810Z,10
2018-11-28T07:16:13.919Z,10
2018-11-28T07:17:24.010Z,10
2018-11-28T07:18:34.110Z,10
2018-11-28T07:19:44.255Z,10
2018-11-28T07:20:54.429Z,15
2018-11-28T07:22:05.965Z,15
2018-11-28T07:23:16.066Z,15
2018-11-28T07:24:26.375Z,15
2018-11-28T07:25:36.563Z,15
2018-11-28T07:26:46.679Z,15
2018-11-28T07:27:56.792Z,20
2018-11-28T07:29:06.921Z,20
2018-11-28T07:30:17.026Z,20
2018-11-28T07:31:27.120Z,20
2018-11-28T07:32:37.206Z,20
2018-11-28T07:33:47.059Z,20
2018-11-28T07:34:57.176Z,20
2018-11-28T07:36:07.021Z,25
2018-11-28T07:37:17.136Z,25
2018-11-28T07:38:27.250Z,25
2018-11-28T07:39:37.418Z,30
2018-11-28T07:40:47.578Z,35
2018-11-28T07:41:57.679Z,40
2018-11-28T07:43:07.775Z,40
2018-11-28T07:44:17.886Z,45
2018-11-28T07:45:28.014Z,50
2018-11-28T07:46:38.112Z,55
2018-11-28T07:47:48.229Z,55
2018-11-28T07:48:58.339Z,65
2018-11-28T07:50:08.183Z,65
2018-11-28T07:51:18.307Z,65
2018-11-28T07:52:28.423Z,70
2018-11-28T07:53:38.557Z,75
2018-11-28T07:54:48.655Z,75
2018-11-28T07:55:58.789Z,75
2018-11-28T07:57:08.915Z,80
2018-11-28T07:58:19.029Z,80
2018-11-28T07:59:29.194Z,80
2018-11-28T08:00:39.295Z,85
2018-11-28T08:01:49.420Z,85
2018-11-28T08:02:59.540Z,90
2018-11-28T08:04:09.945Z,90
2018-11-28T08:05:19.806Z,90
2018-11-28T08:06:29.937Z,95
2018-11-28T08:07:40.090Z,95
2018-11-28T08:08:50.213Z,95
2018-11-28T08:10:00.311Z,95
2018-11-28T08:11:10.594Z,100
2018-11-28T08:12:21.722Z,100
2018-11-28T08:13:31.843Z,105
2018-11-28T08:14:41.955Z,105
2018-11-28T08:15:51.877Z,110
2018-11-28T08:17:02.000Z,115
2018-11-28T08:18:12.113Z,115
2018-11-28T08:19:26.510Z,120
2018-11-28T08:20:36.630Z,125
2018-11-28T08:21:46.769Z,125
2018-11-28T08:22:56.897Z,125
2018-11-28T08:24:07.018Z,130
2018-11-28T08:25:17.905Z,130
2018-11-28T08:26:28.037Z,130
2018-11-28T08:27:38.291Z,135
2018-11-28T08:28:48.478Z,135
2018-11-28T08:29:58.567Z,140
2018-11-28T08:31:09.885Z,135
2018-11-28T08:32:20.116Z,140
2018-11-28T08:33:31.066Z,140
2018-11-28T08:34:41.177Z,140
2018-11-28T08:35:52.569Z,145
2018-11-28T08:37:02.666Z,150
2018-11-28T08:38:12.795Z,160
2018-11-28T08:39:22.915Z,165
2018-11-28T08:40:32.961Z,165
2018-11-28T08:41:43.301Z,165
2018-11-28T08:42:53.436Z,160
2018-11-28T08:44:03.557Z,165
2018-11-28T08:45:13.665Z,165
2018-11-28T08:46:23.849Z,170
2018-11-28T08:47:33.957Z,170
2018-11-28T08:48:44.134Z,165
2018-11-28T08:49:54.258Z,180
2018-11-28T08:51:04.378Z,165
2018-11-28T08:52:14.497Z,155
2018-11-28T08:53:24.663Z,155
2018-11-28T08:54:34.767Z,170
2018-11-28T08:55:44.881Z,175
2018-11-28T08:56:54.997Z,180
2018-11-28T08:58:05.112Z,175
2018-11-28T08:59:15.260Z,175
2018-11-28T09:00:25.390Z,175
2018-11-28T09:01:35.515Z,180
2018-11-28T09:02:45.651Z,185
2018-11-28T09:03:55.857Z,200
2018-11-28T09:05:05.982Z,205
2018-11-28T09:06:16.100Z,210
2018-11-28T09:07:26.199Z,210
2018-11-28T09:08:36.318Z,210
2018-11-28T09:09:46.432Z,205
2018-11-28T09:10:56.557Z,210
2018-11-28T09:12:06.663Z,215
2018-11-28T09:13:16.818Z,210
2018-11-28T09:14:26.965Z,215
2018-11-28T09:15:38.787Z,220
2018-11-28T09:16:48.889Z,220
2018-11-28T09:17:59.133Z,215
2018-11-28T09:19:09.280Z,210
2018-11-28T09:20:19.402Z,220
2018-11-28T09:21:29.514Z,255
2018-11-28T09:22:39.634Z,290
2018-11-28T09:23:49.755Z,310
2018-11-28T09:24:59.907Z,330
2018-11-28T09:26:10.025Z,320
2018-11-28T09:27:20.136Z,275
2018-11-28T09:28:30.286Z,240
2018-11-28T09:29:40.405Z,220
2018-11-28T09:30:50.746Z,215
2018-11-28T09:32:00.860Z,220
2018-11-28T09:33:11.216Z,215
2018-11-28T09:34:21.337Z,215
2018-11-28T09:35:31.467Z,220
2018-11-28T09:36:41.628Z,225
2018-11-28T09:37:55.073Z,230
2018-11-28T09:39:05.248Z,235
2018-11-28T09:40:15.517Z,245
2018-11-28T09:41:25.644Z,255
2018-11-28T09:42:35.777Z,275
2018-11-28T09:43:45.897Z,280
2018-11-28T09:44:56.101Z,290
2018-11-28T09:46:06.267Z,310
2018-11-28T09:47:16.393Z,375
2018-11-28T09:48:26.495Z,540
2018-11-28T09:49:36.609Z,630
2018-11-28T09:50:46.736Z,655
2018-11-28T09:51:56.870Z,665
2018-11-28T09:53:07.069Z,670
2018-11-28T09:54:17.222Z,675
2018-11-28T09:55:27.348Z,660
2018-11-28T09:56:37.493Z,685
2018-11-28T09:57:47.670Z,685
2018-11-28T09:58:57.793Z,675
2018-11-28T10:00:07.940Z,675
2018-11-28T10:01:18.078Z,680
2018-11-28T10:02:28.249Z,690
2018-11-28T10:03:38.363Z,700
2018-11-28T10:04:48.499Z,700
2018-11-28T10:05:58.614Z,705
2018-11-28T10:07:08.743Z,725
2018-11-28T10:08:18.896Z,710
2018-11-28T10:09:29.100Z,725
2018-11-28T10:10:38.700Z,690
2018-11-28T10:11:48.817Z,685
2018-11-28T10:12:58.927Z,700
2018-11-28T10:14:09.049Z,705
2018-11-28T10:15:19.181Z,710
2018-11-28T10:16:29.327Z,730
2018-11-28T10:17:39.599Z,735
2018-11-28T10:18:49.757Z,735
2018-11-28T10:19:59.862Z,720
2018-11-28T10:21:09.970Z,715
2018-11-28T10:22:20.079Z,715
2018-11-28T10:23:30.253Z,730
2018-11-28T10:24:41.645Z,725
2018-11-28T10:25:51.785Z,725
2018-11-28T10:27:02.135Z,735
2018-11-28T10:28:12.457Z,725
2018-11-28T10:29:22.344Z,725
2018-11-28T10:30:34.055Z,730
2018-11-28T10:31:44.168Z,735
2018-11-28T10:32:53.957Z,745
2018-11-28T10:34:04.119Z,745
2018-11-28T10:35:14.264Z,755
2018-11-28T10:36:24.405Z,765
2018-11-28T10:37:34.528Z,760
2018-11-28T10:38:44.393Z,760
2018-11-28T10:39:54.566Z,755
2018-11-28T10:41:04.436Z,750
2018-11-28T10:42:14.582Z,760
2018-11-28T10:43:24.730Z,755
2018-11-28T10:44:34.856Z,750
2018-11-28T10:45:44.973Z,755
2018-11-28T10:46:55.143Z,745
2018-11-28T10:48:05.288Z,755
2018-11-28T10:49:15.442Z,755
2018-11-28T10:50:25.677Z,765
2018-11-28T10:51:35.549Z,745
2018-11-28T10:52:45.663Z,745
2018-11-28T10:53:56.276Z,735
2018-11-28T10:55:06.593Z,740
2018-11-28T10:56:16.703Z,730
2018-11-28T10:57:26.842Z,740
2018-11-28T10:58:37.363Z,735
2018-11-28T10:59:47.489Z,765
2018-11-28T11:00:57.652Z,740
2018-11-28T11:02:07.815Z,735
2018-11-28T11:03:17.694Z,735
2018-11-28T11:04:27.954Z,750
2018-11-28T11:05:38.311Z,745
2018-11-28T11:06:48.426Z,745
2018-11-28T11:07:58.572Z,745
2018-11-28T11:09:08.701Z,750
2018-11-28T11:10:18.847Z,750
2018-11-28T11:11:28.968Z,750
2018-11-28T11:12:39.173Z,750
2018-11-28T11:13:49.328Z,760
2018-11-28T11:14:59.452Z,760
2018-11-28T11:16:09.830Z,760
2018-11-28T11:17:19.954Z,760
2018-11-28T11:18:30.538Z,760
2018-11-28T11:19:40.928Z,770
2018-11-28T11:20:51.077Z,760
2018-11-28T11:22:01.266Z,770
2018-11-28T11:23:11.712Z,760
2018-11-28T11:24:21.854Z,760
2018-11-28T11:25:31.997Z,770
2018-11-28T11:26:42.142Z,760
2018-11-28T11:27:52.276Z,725
2018-11-28T11:29:02.436Z,690
2018-11-28T11:30:12.565Z,750
2018-11-28T11:31:22.717Z,735
2018-11-28T11:32:32.583Z,760
2018-11-28T11:33:42.474Z,725
2018-11-28T11:34:52.629Z,710
2018-11-28T11:36:02.753Z,715
2018-11-28T11:37:12.876Z,695
2018-11-28T11:38:23.099Z,720
2018-11-28T11:39:33.290Z,725
2018-11-28T11:40:43.417Z,700
2018-11-28T11:41:53.589Z,640
2018-11-28T11:43:03.755Z,550
2018-11-28T11:44:13.886Z,500
2018-11-28T11:45:23.772Z,595
2018-11-28T11:46:33.953Z,600
2018-11-28T11:47:44.088Z,555
2018-11-28T11:48:53.981Z,580
2018-11-28T11:50:04.114Z,540
2018-11-28T11:51:14.319Z,540
2018-11-28T11:52:24.443Z,460
2018-11-28T11:53:34.564Z,440
2018-11-28T11:54:44.707Z,465
2018-11-28T11:55:54.858Z,380
2018-11-28T11:57:05.123Z,370
2018-11-28T11:58:15.255Z,340
2018-11-28T11:59:25.402Z,365
2018-11-28T12:00:35.528Z,330
2018-11-28T12:01:45.654Z,330
2018-11-28T12:02:55.819Z,310
2018-11-28T12:04:05.748Z,290
2018-11-28T12:05:16.042Z,310
2018-11-28T12:06:26.160Z,285
2018-11-28T12:07:36.507Z,250
2018-11-28T12:08:46.380Z,250
2018-11-28T12:09:56.508Z,245
2018-11-28T12:11:06.628Z,250
2018-11-28T12:12:16.756Z,230
2018-11-28T12:13:26.910Z,240
2018-11-28T12:14:37.033Z,215
2018-11-28T12:15:47.188Z,210
2018-11-28T12:16:57.304Z,225
2018-11-28T12:18:07.419Z,225
2018-11-28T12:19:17.023Z,215
2018-11-28T12:20:27.141Z,220
2018-11-28T12:21:36.907Z,215
2018-11-28T12:22:47.035Z,205
2018-11-28T12:23:57.155Z,195
2018-11-28T12:25:07.274Z,195
2018-11-28T12:26:17.415Z,195
2018-11-28T12:27:27.539Z,200
2018-11-28T12:28:37.688Z,200
2018-11-28T12:29:48.259Z,200
2018-11-28T12:30:58.605Z,195
2018-11-28T12:32:09.744Z,200
2018-11-28T12:33:19.914Z,195
2018-11-28T12:34:30.307Z,190
2018-11-28T12:35:40.425Z,190
2018-11-28T12:36:50.529Z,195
2018-11-28T12:38:00.651Z,190
2018-11-28T12:39:10.765Z,190
2018-11-28T12:40:20.922Z,180
2018-11-28T12:41:31.054Z,185
2018-11-28T12:42:41.189Z,185
2018-11-28T12:43:51.319Z,195
2018-11-28T12:45:01.444Z,190
2018-11-28T12:46:11.582Z,200
2018-11-28T12:47:21.479Z,200
2018-11-28T12:48:31.608Z,195
2018-11-28T12:49:41.719Z,195
2018-11-28T12:50:51.845Z,195
2018-11-28T12:52:01.755Z,195
2018-11-28T12:53:11.884Z,195
2018-11-28T12:54:22.032Z,195
2018-11-28T12:55:32.433Z,200
2018-11-28T12:56:42.588Z,195
2018-11-28T12:57:52.717Z,190
2018-11-28T12:59:02.838Z,185
2018-11-28T13:00:12.984Z,190
2018-11-28T13:01:23.123Z,185
2018-11-28T13:02:33.251Z,175
2018-11-28T13:03:43.029Z,170
2018-11-28T13:04:53.178Z,170
2018-11-28T13:06:03.282Z,165
2018-11-28T13:07:13.164Z,155
2018-11-28T13:08:23.308Z,160
2018-11-28T13:09:33.693Z,155
2018-11-28T13:10:43.837Z,145
2018-11-28T13:11:54.185Z,130
2018-11-28T13:13:04.434Z,140
2018-11-28T13:14:14.582Z,130
2018-11-28T13:15:24.712Z,110
2018-11-28T13:16:34.829Z,110
2018-11-28T13:17:44.965Z,105
2018-11-28T13:18:55.092Z,130
2018-11-28T13:20:08.674Z,120
2018-11-28T13:21:19.110Z,115
2018-11-28T13:22:29.245Z,100
2018-11-28T13:23:39.386Z,95
2018-11-28T13:24:49.749Z,100
2018-11-28T13:25:59.878Z,110
2018-11-28T13:27:09.997Z,115
2018-11-28T13:28:20.109Z,110
2018-11-28T13:29:30.259Z,110
2018-11-28T13:30:40.360Z,115
2018-11-28T13:31:50.474Z,110
2018-11-28T13:33:00.608Z,110
2018-11-28T13:34:10.740Z,110
2018-11-28T13:35:20.884Z,105
2018-11-28T13:36:32.296Z,105
2018-11-28T13:37:42.439Z,105
2018-11-28T13:38:53.448Z,100
2018-11-28T13:40:03.187Z,100
2018-11-28T13:41:13.328Z,100
2018-11-28T13:42:23.441Z,100
2018-11-28T13:43:33.611Z,100
2018-11-28T13:44:43.495Z,100
2018-11-28T13:45:53.646Z,100
2018-11-28T13:47:03.776Z,100
2018-11-28T13:48:13.907Z,95
2018-11-28T13:49:24.103Z,95
2018-11-28T13:50:34.426Z,95
2018-11-28T13:51:44.540Z,95
2018-11-28T13:52:54.670Z,90
2018-11-28T13:54:23.649Z,90
